Impacts METAR Board
IDs:

KDFW - Dallas-Ft Worth Intl, TX, US

Updated at: 0900 UTC 19 Jul 2018
Potential Impact None Slight Moderate High
Time 18/21Z 18/22Z 18/23Z 19/00Z 19/01Z 19/02Z 19/03Z 19/04Z 19/05Z 19/06Z 19/07Z 19/08Z 19/09Z
Temp105 106 105 103 99 97 96 94 92 91 89 88 87
Dewpt62 63 61 60 63 64 64 62 62 64 64 66 67
Altim29.86 29.85 29.82 29.82 29.82 29.83 29.83 29.84 29.85 29.85 29.85 29.84 29.85
VIS10 10 10 10 10 10 10 10 10 10 10 10 10
CIG-- -- -- -- -- -- -- -- -- -- -- -- --
CoverSCTSCTSCTSCTSCTFEWSCTSCTSCTFEWFEWFEWFEW
FltCatVFRVFRVFRVFRVFRVFRVFRVFRVFRVFRVFRVFRVFR
WX--------------------------
WDir00170160130130160180190190200200200
WSpd0 0 10 6 13 10 14 14 14 16 14 13 12
WGst-- -- -- -- -- -- -- -- -- -- -- -- --
Raw hourly METARs
KDFW 182053Z COR 00000KT 10SM SCT085 SCT300 41/17 A2986 RMK AO2 SLP101 T04060167 58021
KDFW 182153Z 00000KT 10SM SCT095 SCT300 41/17 A2985 RMK AO2 SLP095 T04110172
KDFW 182253Z 17010KT 10SM FEW095 SCT300 41/16 A2982 RMK AO2 SLP087 T04060161
KDFW 182353Z 16006KT 10SM FEW090 SCT180 SCT300 39/16 A2982 RMK AO2 SLP085 T03940156 10411 20367 56016
KDFW 190053Z 13013KT 10SM FEW090 FEW180 SCT300 37/17 A2982 RMK AO2 SLP086 T03720172
KDFW 190153Z 13010KT 10SM FEW180 FEW300 36/18 A2983 RMK AO2 SLP090 T03610178
KDFW 190253Z 16014KT 10SM FEW180 SCT300 36/18 A2983 RMK AO2 SLP089 T03560178 50004
KDFW 190353Z 18014KT 10SM SCT180 SCT300 34/17 A2984 RMK AO2 SLP095 T03440167
KDFW 190453Z 19014KT 10SM FEW180 SCT300 33/17 A2985 RMK AO2 SLP096 T03330167
KDFW 190553Z 19016KT 10SM FEW180 FEW300 33/18 A2985 RMK AO2 SLP097 T03280178 10394 20328 404110278 51008
KDFW 190653Z 20014KT 10SM FEW180 FEW300 32/18 A2985 RMK AO2 SLP096 T03170178
KDFW 190753Z 20013KT 10SM FEW180 31/19 A2984 RMK AO2 SLP094 T03110189
KDFW 190853Z 20012KT 10SM FEW180 FEW300 31/19 A2985 RMK AO2 SLP096 T03060194 55001



Page loaded:  09:48 UTC  |   02:48 AM Pacific  |   03:48 AM Mountain  |   04:48 AM Central  |   05:48 AM Eastern

 

ADVISORIES

FORECASTS

FORECASTS

OBSERVATIONS

USER TOOLS

ABOUT US